• Join FlightAware (Why Join?)
  • Login
  • US Flag 
05:23PM EDT


 

Airport Tracker/Info


-or-


 

Live Flight TrackerFlight Track Log ✈ N6056Y ✈ 23-May-2013 ✈ KCSV - KDMW

Flight Track Log - Related Links

Times and Time Zones

All times are in EDT time to prevent confusion due to time zone crossing. See the N6056Y flight status page for this flight to view local times or setup timezone preferences in your user account.

Time Position Orientation Groundspeed Altitude Reporting Facility
EDT Latitude Longitude Course Direction KTS MPH feet Rate Location/Type
02:55PM 35.9456 -85.0519 56° Northeast 160 184 4,100  Level Atlanta Center
02:56PM 35.9750 -85.0214 40° Northeast 145 167 4,900 780 Climbing Atlanta Center
02:57PM 36.0025 -84.9858 46° Northeast 138 159 5,700 720 Climbing Atlanta Center
02:58PM 36.0236 -84.9475 56° Northeast 138 159 6,400 720 Climbing Atlanta Center
02:59PM 36.0447 -84.9067 57° Northeast 132 152 7,200 720 Climbing Atlanta Center
03:00PM 36.0681 -84.8683 53° Northeast 132 152 7,900 660 Climbing Atlanta Center
03:01PM 36.1102 -84.7644 56° Northeast  Level FlightAware Approximate
03:01PM 36.0869 -84.8250 62° Northeast 132 152 8,600  Level Atlanta Center
03:02PM 36.1103 -84.7842 55° Northeast 132 152 9,200 600 Climbing Atlanta Center
03:03PM 36.1314 -84.7431 58° Northeast 132 152 9,800 420 Climbing Atlanta Center
03:04PM 36.1369 -84.7336 54° Northeast 141 162 9,800 360 Level Indianapolis Center
03:05PM 36.1594 -84.6914 57° Northeast 145 167 10,300 540 Climbing Indianapolis Center
03:06PM 36.1847 -84.6414 58° Northeast 144 166 11,000 240 Climbing Indianapolis Center
03:07PM 36.2103 -84.5947 56° Northeast 161 185 10,900  Descending Indianapolis Center
03:08PM 36.2422 -84.5494 49° Northeast 173 199 11,000  Climbing Indianapolis Center
03:09PM 36.2753 -84.5050 47° Northeast 175 201 10,900  Descending Indianapolis Center
03:10PM 36.3108 -84.4656 42° Northeast 172 198 11,000  Climbing Indianapolis Center
03:11PM 36.3508 -84.4339 33° Northeast 169 194 11,000  Level Indianapolis Center
03:12PM 36.3842 -84.3783 53° Northeast 169 194 11,000  Level Indianapolis Center
03:13PM 36.4069 -84.3253 62° Northeast 174 200 11,000  Level Indianapolis Center
03:14PM 36.4261 -84.2669 68° East 181 208 11,000 180 Level Indianapolis Center
03:15PM 36.4422 -84.2089 71° East 178 205 11,400 360 Climbing Indianapolis Center
03:16PM 36.4544 -84.1547 74° East 167 192 11,800 240 Climbing Indianapolis Center
03:17PM 36.4658 -84.0989 76° East 166 191 12,000 60 Climbing Indianapolis Center
03:18PM 36.4867 -84.0306 69° East 176 203 12,000  Level Indianapolis Center
03:19PM 36.5197 -83.9847 48° Northeast 176 203 12,000  Level Indianapolis Center
03:20PM 36.5494 -83.9356 53° Northeast 178 205 12,000  Level Indianapolis Center
03:21PM 36.5758 -83.8850 57° Northeast 175 201 12,000  Level Indianapolis Center
03:22PM 36.6017 -83.8314 59° Northeast 179 206 12,000  Level Indianapolis Center
03:23PM 36.6289 -83.7806 56° Northeast 176 203 12,000  Level Indianapolis Center
03:24PM 36.6603 -83.7181 58° Northeast 180 207 12,000  Level Indianapolis Center
03:25PM 36.6922 -83.6661 53° Northeast 185 213 12,000  Level Indianapolis Center
03:26PM 36.7228 -83.6169 52° Northeast 182 209 12,000  Level Indianapolis Center
03:27PM 36.7531 -83.5667 53° Northeast 181 208 12,000  Level Indianapolis Center
03:28PM 36.7850 -83.5156 52° Northeast 185 213 12,000  Level Indianapolis Center
03:29PM 36.8206 -83.4522 55° Northeast 190 219 12,000  Level Indianapolis Center
03:30PM 36.8528 -83.4019 51° Northeast 186 214 12,000  Level Indianapolis Center
03:32PM 36.8847 -83.3506 52° Northeast 188 216 12,000  Level Indianapolis Center
03:33PM 36.9178 -83.2989 51° Northeast 191 220 12,000  Level Indianapolis Center
03:34PM 36.9506 -83.2497 50° Northeast 188 216 12,000  Level Indianapolis Center
03:35PM 36.9828 -83.1983 52° Northeast 189 217 12,000  Level Indianapolis Center
03:36PM 37.0197 -83.1383 52° Northeast 187 215 12,000  Level Indianapolis Center
03:37PM 37.0519 -83.0861 52° Northeast 188 216 12,000  Level Indianapolis Center
03:38PM 37.0842 -83.0333 53° Northeast 191 220 12,000  Level Indianapolis Center
03:39PM 37.1106 -82.9753 60° Northeast 190 219 12,000  Level Indianapolis Center
03:40PM 37.1311 -82.9128 68° East 191 220 12,000  Level Indianapolis Center
03:41PM 37.1486 -82.8486 71° East 195 224 12,000  Level Indianapolis Center
03:42PM 37.1681 -82.7858 69° East 193 222 12,000  Level Indianapolis Center
03:43PM 37.1914 -82.7144 68° East 191 220 12,000  Level Indianapolis Center
03:44PM 37.2097 -82.6542 69° East 185 213 12,000  Level Indianapolis Center
03:45PM 37.2258 -82.5950 71° East 181 208 12,000  Level Indianapolis Center
03:46PM 37.2319 -82.5331 83° East 178 205 12,000  Level Indianapolis Center
03:47PM 37.2386 -82.4706 82° East 180 207 12,000  Level Indianapolis Center
03:48PM 37.2464 -82.4081 81° East 184 212 12,000 -60 Level Indianapolis Center
03:49PM 37.2644 -82.3339 73° East 191 220 11,900 -60 Descending Indianapolis Center
03:50PM 37.2642 -82.2717 90° East 192 221 11,900  Level Indianapolis Center
03:51PM 37.2906 -82.2153 60° Northeast 185 213 11,900  Level Indianapolis Center
03:52PM 37.3053 -82.1525 74° East 185 213 11,900  Level Indianapolis Center
03:53PM 37.3242 -82.0925 68° East 185 213 11,900  Level Indianapolis Center
03:54PM 37.3450 -82.0250 69° East 178 205 11,900  Level Indianapolis Center
03:55PM 37.3639 -81.9686 67° East 176 203 11,900  Level Indianapolis Center
03:56PM 37.3969 -81.9219 48° Northeast 177 204 11,900  Level Indianapolis Center
03:57PM 37.4303 -81.8744 49° Northeast 179 206 11,900  Level Indianapolis Center
03:58PM 37.4644 -81.8283 47° Northeast 180 207 11,900  Level Indianapolis Center
03:59PM 37.4994 -81.7839 45° Northeast 178 205 11,900  Level Indianapolis Center
04:00PM 37.5422 -81.7339 43° Northeast 178 205 12,000  Climbing Indianapolis Center
04:02PM 37.5800 -81.6900 43° Northeast 183 211 12,000  Level Indianapolis Center
04:03PM 37.6139 -81.6436 47° Northeast 181 208 12,000  Level Indianapolis Center
04:04PM 37.6506 -81.5986 44° Northeast 182 209 12,000 -60 Level Indianapolis Center
04:05PM 37.6844 -81.5544 46° Northeast 175 201 11,900  Descending Indianapolis Center
04:06PM 37.7167 -81.4972 55° Northeast 171 197 12,000  Climbing Indianapolis Center
04:07PM 37.7358 -81.4442 65° Northeast 175 201 12,000 -60 Level Indianapolis Center
04:08PM 37.7542 -81.3889 67° East 176 203 11,900 -60 Descending Indianapolis Center
04:09PM 37.7922 -81.3356 48° Northeast 174 200 11,900  Level Indianapolis Center
04:10PM 37.8214 -81.2869 53° Northeast 177 204 12,000  Climbing Indianapolis Center
04:11PM 37.8539 -81.2347 52° Northeast 186 214 11,900 -60 Descending Indianapolis Center
04:12PM 37.8872 -81.1861 49° Northeast 184 212 11,900  Level Indianapolis Center
04:13PM 37.9186 -81.1344 52° Northeast 186 214 11,900  Level Indianapolis Center
04:14PM 37.9467 -81.0783 58° Northeast 188 216 11,900  Level Indianapolis Center
04:15PM 37.9789 -81.0114 59° Northeast 185 213 11,900  Level Indianapolis Center
04:16PM 38.0053 -80.9553 59° Northeast 187 215 11,900  Level Indianapolis Center
04:17PM 38.0322 -80.8986 59° Northeast 189 217 11,900  Level Indianapolis Center
04:18PM 38.0589 -80.8425 59° Northeast 186 214 11,900  Level Indianapolis Center
04:19PM 38.0850 -80.7856 60° Northeast 186 214 11,900  Level Indianapolis Center
04:20PM 38.1122 -80.7281 59° Northeast 189 217 11,900  Level Indianapolis Center
04:21PM 38.1436 -80.6589 60° Northeast 189 217 11,900  Level Indianapolis Center
04:22PM 38.1697 -80.6003 60° Northeast 190 219 11,900  Level Indianapolis Center
04:23PM 38.2006 -80.5469 54° Northeast 189 217 11,900  Level Indianapolis Center
04:24PM 38.2186 -80.5025 63° Northeast 178 205 12,000  Climbing Washington Center
04:25PM 38.2464 -80.4381 61° Northeast 178 205 12,000  Level Washington Center
04:26PM 38.2758 -80.3792 57° Northeast 178 205 12,000  Level Washington Center
04:27PM 38.3011 -80.3225 60° Northeast 178 205 12,000 -60 Level Washington Center
04:28PM 38.3322 -80.2689 53° Northeast 178 205 11,900  Descending Washington Center
04:29PM 38.3592 -80.2203 55° Northeast 183 211 12,000  Climbing Washington Center
04:30PM 38.3764 -80.1578 71° East 183 211 12,000  Level Washington Center
04:31PM 38.3994 -80.0983 64° Northeast 178 205 12,000  Level Washington Center
04:32PM 38.4286 -80.0417 57° Northeast 178 205 12,100  Climbing Washington Center
04:33PM 38.4539 -79.9769 63° Northeast 178 205 12,000 -60 Descending Washington Center
04:34PM 38.4789 -79.9228 59° Northeast 178 205 12,000  Level Washington Center
04:35PM 38.5058 -79.8661 59° Northeast 178 205 12,000  Level Washington Center
04:36PM 38.5325 -79.8197 54° Northeast 178 205 12,000  Level Washington Center
04:37PM 38.5675 -79.7767 44° Northeast 178 205 12,000  Level Washington Center
04:38PM 38.6064 -79.7336 41° Northeast 173 199 12,000  Level Washington Center
04:39PM 38.6333 -79.6794 57° Northeast 178 205 12,000  Level Washington Center
04:40PM 38.6625 -79.6197 58° Northeast 185 213 12,100  Climbing Washington Center
04:41PM 38.6894 -79.5628 59° Northeast 185 213 12,000 -60 Descending Washington Center
04:42PM 38.7183 -79.5083 56° Northeast 185 213 12,000  Level Washington Center
04:43PM 38.7453 -79.4514 59° Northeast 185 213 12,000  Level Washington Center
04:44PM 38.7717 -79.4047 54° Northeast 179 206 12,000  Level Washington Center
04:45PM 38.7986 -79.3422 61° Northeast 185 213 12,000  Level Washington Center
04:46PM 38.8253 -79.2903 57° Northeast 180 207 12,000  Level Washington Center
04:47PM 38.8500 -79.2356 60° Northeast 175 201 12,000  Level Washington Center
04:48PM 38.8725 -79.1781 63° Northeast 175 201 12,000 -180 Level Washington Center
04:49PM 38.8950 -79.1203 63° Northeast 175 201 11,700 -300 Descending Washington Center
04:50PM 38.9197 -79.0575 63° Northeast 175 201 11,500 -240 Descending Washington Center
04:51PM 38.9422 -78.9972 64° Northeast 180 207 11,300 -360 Descending Washington Center
04:52PM 38.9650 -78.9342 65° Northeast 180 207 10,900 -480 Descending Washington Center
04:53PM 38.9856 -78.8711 67° East 186 214 10,400 -420 Descending Washington Center
04:54PM 39.0061 -78.8053 68° East 191 220 10,100 -420 Descending Washington Center
04:55PM 39.0286 -78.7419 65° Northeast 191 220 9,600 -480 Descending Washington Center
04:56PM 39.0489 -78.6761 68° East 191 220 9,200 -360 Descending Washington Center
04:57PM 39.0694 -78.6128 67° East 191 220 8,900 -120 Descending Washington Center
04:58PM 39.0936 -78.5575 61° Northeast 186 214 9,000  Climbing Washington Center
04:59PM 39.1139 -78.4969 67° East 180 207 8,900  Descending Washington Center
05:00PM 39.1342 -78.4389 66° East 180 207 9,000  Climbing Washington Center
05:01PM 39.1583 -78.3756 64° Northeast 180 207 8,900  Descending Washington Center
05:02PM 39.1828 -78.3175 61° Northeast 180 207 9,000 -300 Climbing Washington Center
05:03PM 39.2069 -78.2569 63° Northeast 180 207 8,400 -600 Descending Washington Center
05:04PM 39.2436 -78.2044 48° Northeast 180 207 7,900 -540 Descending Washington Center
05:05PM 39.2842 -78.1606 40° Northeast 180 207 7,400 -540 Descending Washington Center
05:06PM 39.3064 -78.0969 66° East 180 207 6,900 -480 Descending Washington Center
05:07PM 39.3264 -78.0331 68° East 180 207 6,500 -360 Descending Washington Center
05:08PM 39.3464 -77.9694 68° East 185 213 6,200 -480 Descending Washington Center
05:09PM 39.3642 -77.9083 69° East 185 213 5,600 -660 Descending Washington Center
05:10PM 39.3842 -77.8417 69° East 185 213 4,900 -180 Descending Washington Center
05:14PM 39.4167 -77.6333 79° East 171 197 4,900  Level Potomac TRACON
05:15PM 39.4167 -77.5667 90° East 172 198 4,900  Level Potomac TRACON
05:16PM 39.4333 -77.5167 67° East 171 197 4,900  Level Potomac TRACON
05:17PM 39.4500 -77.4500 72° East 171 197 4,900 -240 Level Potomac TRACON
05:18PM 39.4667 -77.4000 67° East 179 206 4,500 -480 Descending Potomac TRACON
05:19PM 39.4833 -77.3333 72° East 176 203 4,000 -540 Descending Potomac TRACON